sensor_id;sensor_type;location;lat;lon;timestamp;temperature;humidity
52187;DHT22;38161;53.020;6.598;2022-10-28T00:00:22;15.00;99.90
52187;DHT22;38161;53.020;6.598;2022-10-28T00:02:48;15.00;99.90
52187;DHT22;38161;53.020;6.598;2022-10-28T00:05:13;15.00;99.90
52187;DHT22;38161;53.020;6.598;2022-10-28T00:07:39;15.00;99.90
52187;DHT22;38161;53.020;6.598;2022-10-28T00:10:05;15.00;99.90
52187;DHT22;38161;53.020;6.598;2022-10-28T00:12:35;15.00;99.90
52187;DHT22;38161;53.020;6.598;2022-10-28T00:15:01;15.00;99.90
52187;DHT22;38161;53.020;6.598;2022-10-28T00:17:27;15.00;99.90
52187;DHT22;38161;53.020;6.598;2022-10-28T00:19:52;15.00;99.90
52187;DHT22;38161;53.020;6.598;2022-10-28T00:22:18;15.00;99.90
52187;DHT22;38161;53.020;6.598;2022-10-28T00:24:44;15.00;99.90
52187;DHT22;38161;53.020;6.598;2022-10-28T00:27:09;15.00;99.90
52187;DHT22;38161;53.020;6.598;2022-10-28T00:29:35;15.00;99.90
52187;DHT22;38161;53.020;6.598;2022-10-28T00:32:01;15.00;99.90
52187;DHT22;38161;53.020;6.598;2022-10-28T00:34:26;15.00;99.90
52187;DHT22;38161;53.020;6.598;2022-10-28T00:36:52;15.00;99.90
52187;DHT22;38161;53.020;6.598;2022-10-28T00:39:23;15.00;99.90
52187;DHT22;38161;53.020;6.598;2022-10-28T00:41:53;15.00;99.90
52187;DHT22;38161;53.020;6.598;2022-10-28T00:44:57;15.00;99.90
52187;DHT22;38161;53.020;6.598;2022-10-28T00:50:59;15.00;99.90
52187;DHT22;38161;53.020;6.598;2022-10-28T00:53:24;15.10;99.90
52187;DHT22;38161;53.020;6.598;2022-10-28T00:55:51;15.00;99.90
52187;DHT22;38161;53.020;6.598;2022-10-28T00:58:17;15.10;99.90
52187;DHT22;38161;53.020;6.598;2022-10-28T01:00:43;15.10;99.90
52187;DHT22;38161;53.020;6.598;2022-10-28T01:03:09;15.00;99.90
52187;DHT22;38161;53.020;6.598;2022-10-28T01:05:37;15.10;99.90
52187;DHT22;38161;53.020;6.598;2022-10-28T01:08:04;15.10;99.90
52187;DHT22;38161;53.020;6.598;2022-10-28T01:13:34;15.10;99.90
52187;DHT22;38161;53.020;6.598;2022-10-28T01:24:42;15.00;99.90
52187;DHT22;38161;53.020;6.598;2022-10-28T01:30:17;15.00;99.90
52187;DHT22;38161;53.020;6.598;2022-10-28T01:35:43;15.00;99.90
52187;DHT22;38161;53.020;6.598;2022-10-28T01:38:53;15.00;99.90
52187;DHT22;38161;53.020;6.598;2022-10-28T01:46:38;15.00;99.90
52187;DHT22;38161;53.020;6.598;2022-10-28T01:49:50;14.90;99.90
52187;DHT22;38161;53.020;6.598;2022-10-28T01:52:01;14.90;99.90
52187;DHT22;38161;53.020;6.598;2022-10-28T01:54:29;14.90;99.90
52187;DHT22;38161;53.020;6.598;2022-10-28T01:56:57;14.80;99.90
52187;DHT22;38161;53.020;6.598;2022-10-28T01:59:25;14.90;99.90
52187;DHT22;38161;53.020;6.598;2022-10-28T02:01:53;14.80;99.90
52187;DHT22;38161;53.020;6.598;2022-10-28T02:04:18;14.80;99.90
52187;DHT22;38161;53.020;6.598;2022-10-28T02:06:47;14.80;99.90
52187;DHT22;38161;53.020;6.598;2022-10-28T02:09:41;14.80;99.90
52187;DHT22;38161;53.020;6.598;2022-10-28T02:12:33;14.80;99.90
52187;DHT22;38161;53.020;6.598;2022-10-28T02:15:23;14.70;99.90
52187;DHT22;38161;53.020;6.598;2022-10-28T02:18:24;14.70;99.90
52187;DHT22;38161;53.020;6.598;2022-10-28T02:21:00;14.70;99.90
52187;DHT22;38161;53.020;6.598;2022-10-28T02:31:26;14.70;99.90
52187;DHT22;38161;53.020;6.598;2022-10-28T02:33:58;14.70;99.90
52187;DHT22;38161;53.020;6.598;2022-10-28T02:36:26;14.70;99.90
52187;DHT22;38161;53.020;6.598;2022-10-28T02:38:56;14.70;99.90
52187;DHT22;38161;53.020;6.598;2022-10-28T02:41:46;14.60;99.90
52187;DHT22;38161;53.020;6.598;2022-10-28T02:44:19;14.60;99.90
52187;DHT22;38161;53.020;6.598;2022-10-28T02:46:49;14.60;99.90
52187;DHT22;38161;53.020;6.598;2022-10-28T02:49:16;14.60;99.90
52187;DHT22;38161;53.020;6.598;2022-10-28T02:51:47;14.60;99.90
52187;DHT22;38161;53.020;6.598;2022-10-28T02:54:23;14.50;99.90
52187;DHT22;38161;53.020;6.598;2022-10-28T02:57:13;14.50;99.90
52187;DHT22;38161;53.020;6.598;2022-10-28T02:59:40;14.40;99.90
52187;DHT22;38161;53.020;6.598;2022-10-28T03:02:07;14.40;99.90
52187;DHT22;38161;53.020;6.598;2022-10-28T03:04:32;14.30;99.90
52187;DHT22;38161;53.020;6.598;2022-10-28T03:06:58;14.30;99.90
52187;DHT22;38161;53.020;6.598;2022-10-28T03:09:24;14.30;99.90
52187;DHT22;38161;53.020;6.598;2022-10-28T03:11:50;14.20;99.90
52187;DHT22;38161;53.020;6.598;2022-10-28T03:14:15;14.20;99.90
52187;DHT22;38161;53.020;6.598;2022-10-28T03:16:41;14.20;99.90
52187;DHT22;38161;53.020;6.598;2022-10-28T03:19:07;14.10;99.90
52187;DHT22;38161;53.020;6.598;2022-10-28T03:21:33;14.10;99.90
52187;DHT22;38161;53.020;6.598;2022-10-28T03:23:59;14.00;99.90
52187;DHT22;38161;53.020;6.598;2022-10-28T03:26:24;14.00;99.90
52187;DHT22;38161;53.020;6.598;2022-10-28T03:28:50;14.00;99.90
52187;DHT22;38161;53.020;6.598;2022-10-28T03:31:16;13.90;99.90
52187;DHT22;38161;53.020;6.598;2022-10-28T03:33:42;13.90;99.90
52187;DHT22;38161;53.020;6.598;2022-10-28T03:36:07;13.90;99.90
52187;DHT22;38161;53.020;6.598;2022-10-28T03:38:33;13.80;99.90
52187;DHT22;38161;53.020;6.598;2022-10-28T03:40:59;13.80;99.90
52187;DHT22;38161;53.020;6.598;2022-10-28T03:43:24;13.80;99.90
52187;DHT22;38161;53.020;6.598;2022-10-28T03:45:50;13.70;99.90
52187;DHT22;38161;53.020;6.598;2022-10-28T03:48:16;13.70;99.90
52187;DHT22;38161;53.020;6.598;2022-10-28T03:50:42;13.70;99.90
52187;DHT22;38161;53.020;6.598;2022-10-28T03:53:07;13.60;99.90
52187;DHT22;38161;53.020;6.598;2022-10-28T03:55:33;13.70;99.90
52187;DHT22;38161;53.020;6.598;2022-10-28T03:57:59;13.60;99.90
52187;DHT22;38161;53.020;6.598;2022-10-28T04:00:25;13.60;99.90
52187;DHT22;38161;53.020;6.598;2022-10-28T04:02:52;13.60;99.90
52187;DHT22;38161;53.020;6.598;2022-10-28T04:05:19;13.60;99.90
52187;DHT22;38161;53.020;6.598;2022-10-28T04:07:44;13.60;99.90
52187;DHT22;38161;53.020;6.598;2022-10-28T04:10:11;13.50;99.90
52187;DHT22;38161;53.020;6.598;2022-10-28T04:12:37;13.50;99.90
52187;DHT22;38161;53.020;6.598;2022-10-28T04:15:03;13.40;99.90
52187;DHT22;38161;53.020;6.598;2022-10-28T04:17:29;13.40;99.90
52187;DHT22;38161;53.020;6.598;2022-10-28T04:19:54;13.30;99.90
52187;DHT22;38161;53.020;6.598;2022-10-28T04:22:20;13.30;99.90
52187;DHT22;38161;53.020;6.598;2022-10-28T04:24:46;13.30;99.90
52187;DHT22;38161;53.020;6.598;2022-10-28T04:27:12;13.30;99.90
52187;DHT22;38161;53.020;6.598;2022-10-28T04:29:37;13.20;99.90
52187;DHT22;38161;53.020;6.598;2022-10-28T04:32:03;13.20;99.90
52187;DHT22;38161;53.020;6.598;2022-10-28T04:34:29;13.20;99.90
52187;DHT22;38161;53.020;6.598;2022-10-28T04:36:54;13.20;99.90
52187;DHT22;38161;53.020;6.598;2022-10-28T04:39:20;13.10;99.90
52187;DHT22;38161;53.020;6.598;2022-10-28T04:41:46;13.10;99.90
52187;DHT22;38161;53.020;6.598;2022-10-28T04:44:11;13.10;99.90
52187;DHT22;38161;53.020;6.598;2022-10-28T04:46:37;13.00;99.90
52187;DHT22;38161;53.020;6.598;2022-10-28T04:49:03;13.00;99.90
52187;DHT22;38161;53.020;6.598;2022-10-28T04:51:29;13.00;99.90
52187;DHT22;38161;53.020;6.598;2022-10-28T04:53:54;13.00;99.90
52187;DHT22;38161;53.020;6.598;2022-10-28T04:56:20;13.00;99.90
52187;DHT22;38161;53.020;6.598;2022-10-28T04:58:46;12.90;99.90
52187;DHT22;38161;53.020;6.598;2022-10-28T05:01:12;12.90;99.90
52187;DHT22;38161;53.020;6.598;2022-10-28T05:03:38;12.80;99.90
52187;DHT22;38161;53.020;6.598;2022-10-28T05:06:03;12.80;99.90
52187;DHT22;38161;53.020;6.598;2022-10-28T05:08:29;12.80;99.90
52187;DHT22;38161;53.020;6.598;2022-10-28T05:10:55;12.70;99.90
52187;DHT22;38161;53.020;6.598;2022-10-28T05:13:20;12.70;99.90
52187;DHT22;38161;53.020;6.598;2022-10-28T05:15:50;12.70;99.90
52187;DHT22;38161;53.020;6.598;2022-10-28T05:18:15;12.70;99.90
52187;DHT22;38161;53.020;6.598;2022-10-28T05:20:42;12.70;99.90
52187;DHT22;38161;53.020;6.598;2022-10-28T05:23:08;12.70;99.90
52187;DHT22;38161;53.020;6.598;2022-10-28T05:25:34;12.70;99.90
52187;DHT22;38161;53.020;6.598;2022-10-28T05:28:00;12.60;99.90
52187;DHT22;38161;53.020;6.598;2022-10-28T05:30:26;12.60;99.90
52187;DHT22;38161;53.020;6.598;2022-10-28T05:33:02;12.60;99.90
52187;DHT22;38161;53.020;6.598;2022-10-28T05:35:31;12.50;99.90
52187;DHT22;38161;53.020;6.598;2022-10-28T05:37:57;12.50;99.90
52187;DHT22;38161;53.020;6.598;2022-10-28T05:40:23;12.50;99.90
52187;DHT22;38161;53.020;6.598;2022-10-28T05:42:49;12.40;99.90
52187;DHT22;38161;53.020;6.598;2022-10-28T05:45:14;12.40;99.90
52187;DHT22;38161;53.020;6.598;2022-10-28T05:47:45;12.40;99.90
52187;DHT22;38161;53.020;6.598;2022-10-28T05:50:11;12.40;99.90
52187;DHT22;38161;53.020;6.598;2022-10-28T05:52:37;12.50;99.90
52187;DHT22;38161;53.020;6.598;2022-10-28T05:55:03;12.40;99.90
52187;DHT22;38161;53.020;6.598;2022-10-28T05:57:32;12.40;99.90
52187;DHT22;38161;53.020;6.598;2022-10-28T05:59:57;12.50;99.90
52187;DHT22;38161;53.020;6.598;2022-10-28T06:02:23;12.50;99.90
52187;DHT22;38161;53.020;6.598;2022-10-28T06:04:49;12.50;99.90
52187;DHT22;38161;53.020;6.598;2022-10-28T06:07:14;12.50;99.90
52187;DHT22;38161;53.020;6.598;2022-10-28T06:09:40;12.60;99.90
52187;DHT22;38161;53.020;6.598;2022-10-28T06:12:06;12.60;99.90
52187;DHT22;38161;53.020;6.598;2022-10-28T06:14:33;12.60;99.90
52187;DHT22;38161;53.020;6.598;2022-10-28T06:16:58;12.50;99.90
52187;DHT22;38161;53.020;6.598;2022-10-28T06:19:24;12.60;99.90
52187;DHT22;38161;53.020;6.598;2022-10-28T06:21:50;12.60;99.90
52187;DHT22;38161;53.020;6.598;2022-10-28T06:24:15;12.50;99.90
52187;DHT22;38161;53.020;6.598;2022-10-28T06:26:42;12.50;99.90
52187;DHT22;38161;53.020;6.598;2022-10-28T06:29:11;12.60;99.90
52187;DHT22;38161;53.020;6.598;2022-10-28T06:31:40;12.50;99.90
52187;DHT22;38161;53.020;6.598;2022-10-28T06:34:08;12.60;99.90
52187;DHT22;38161;53.020;6.598;2022-10-28T06:36:34;12.60;99.90
52187;DHT22;38161;53.020;6.598;2022-10-28T06:39:00;12.60;99.90
52187;DHT22;38161;53.020;6.598;2022-10-28T06:41:26;12.60;99.90
52187;DHT22;38161;53.020;6.598;2022-10-28T06:43:52;12.70;99.90
52187;DHT22;38161;53.020;6.598;2022-10-28T06:46:17;12.70;99.90
52187;DHT22;38161;53.020;6.598;2022-10-28T06:48:43;12.70;99.90
52187;DHT22;38161;53.020;6.598;2022-10-28T06:51:09;12.70;99.90
52187;DHT22;38161;53.020;6.598;2022-10-28T06:53:35;12.80;99.90
52187;DHT22;38161;53.020;6.598;2022-10-28T06:56:00;12.80;99.90
52187;DHT22;38161;53.020;6.598;2022-10-28T06:58:26;12.80;99.90
52187;DHT22;38161;53.020;6.598;2022-10-28T07:00:52;12.90;99.90
52187;DHT22;38161;53.020;6.598;2022-10-28T07:03:18;12.90;99.90
52187;DHT22;38161;53.020;6.598;2022-10-28T07:05:45;13.00;99.90
52187;DHT22;38161;53.020;6.598;2022-10-28T07:08:11;13.00;99.90
52187;DHT22;38161;53.020;6.598;2022-10-28T07:10:38;13.10;99.90
52187;DHT22;38161;53.020;6.598;2022-10-28T07:13:04;13.20;99.90
52187;DHT22;38161;53.020;6.598;2022-10-28T07:15:30;13.20;99.90
52187;DHT22;38161;53.020;6.598;2022-10-28T07:17:57;13.30;99.90
52187;DHT22;38161;53.020;6.598;2022-10-28T07:20:25;13.30;99.90
52187;DHT22;38161;53.020;6.598;2022-10-28T07:22:59;13.40;99.90
52187;DHT22;38161;53.020;6.598;2022-10-28T07:25:29;13.40;99.90
52187;DHT22;38161;53.020;6.598;2022-10-28T07:27:56;13.50;99.90
52187;DHT22;38161;53.020;6.598;2022-10-28T07:30:22;13.50;99.90
52187;DHT22;38161;53.020;6.598;2022-10-28T07:32:48;13.60;99.90
52187;DHT22;38161;53.020;6.598;2022-10-28T07:35:14;13.60;99.90
52187;DHT22;38161;53.020;6.598;2022-10-28T07:37:40;13.70;99.90
52187;DHT22;38161;53.020;6.598;2022-10-28T07:40:06;13.70;99.90
52187;DHT22;38161;53.020;6.598;2022-10-28T07:42:35;13.80;99.90
52187;DHT22;38161;53.020;6.598;2022-10-28T07:45:00;13.90;99.90
52187;DHT22;38161;53.020;6.598;2022-10-28T07:47:26;14.00;99.90
52187;DHT22;38161;53.020;6.598;2022-10-28T07:49:52;14.00;99.90
52187;DHT22;38161;53.020;6.598;2022-10-28T07:52:19;14.10;99.90
52187;DHT22;38161;53.020;6.598;2022-10-28T07:54:45;14.10;99.90
52187;DHT22;38161;53.020;6.598;2022-10-28T07:57:11;14.20;99.90
52187;DHT22;38161;53.020;6.598;2022-10-28T07:59:37;14.30;99.90
52187;DHT22;38161;53.020;6.598;2022-10-28T08:02:03;14.40;99.90
52187;DHT22;38161;53.020;6.598;2022-10-28T08:04:30;14.40;99.90
52187;DHT22;38161;53.020;6.598;2022-10-28T08:06:56;14.50;99.90
52187;DHT22;38161;53.020;6.598;2022-10-28T08:09:22;14.50;99.90
52187;DHT22;38161;53.020;6.598;2022-10-28T08:11:47;14.60;99.90
52187;DHT22;38161;53.020;6.598;2022-10-28T08:14:13;14.70;99.90
52187;DHT22;38161;53.020;6.598;2022-10-28T08:16:39;14.70;99.90
52187;DHT22;38161;53.020;6.598;2022-10-28T08:19:05;14.80;99.90
52187;DHT22;38161;53.020;6.598;2022-10-28T08:21:31;14.90;99.90
52187;DHT22;38161;53.020;6.598;2022-10-28T08:23:56;15.00;99.90
52187;DHT22;38161;53.020;6.598;2022-10-28T08:26:22;15.00;99.90
52187;DHT22;38161;53.020;6.598;2022-10-28T08:28:48;15.10;99.90
52187;DHT22;38161;53.020;6.598;2022-10-28T08:31:13;15.10;99.90
52187;DHT22;38161;53.020;6.598;2022-10-28T08:33:42;15.10;99.90
52187;DHT22;38161;53.020;6.598;2022-10-28T08:36:12;15.20;99.90
52187;DHT22;38161;53.020;6.598;2022-10-28T08:38:39;15.20;99.90
52187;DHT22;38161;53.020;6.598;2022-10-28T08:49:30;15.50;99.90
52187;DHT22;38161;53.020;6.598;2022-10-28T08:55:33;15.60;99.90
52187;DHT22;38161;53.020;6.598;2022-10-28T09:00:54;15.70;99.90
52187;DHT22;38161;53.020;6.598;2022-10-28T09:03:29;15.90;99.90
52187;DHT22;38161;53.020;6.598;2022-10-28T09:06:09;15.90;99.90
52187;DHT22;38161;53.020;6.598;2022-10-28T09:08:55;16.00;99.90
52187;DHT22;38161;53.020;6.598;2022-10-28T09:14:19;16.10;99.90
52187;DHT22;38161;53.020;6.598;2022-10-28T09:17:13;16.20;99.90
52187;DHT22;38161;53.020;6.598;2022-10-28T09:24:50;16.20;99.90
52187;DHT22;38161;53.020;6.598;2022-10-28T09:30:16;16.20;99.90
52187;DHT22;38161;53.020;6.598;2022-10-28T09:35:17;16.30;99.90
52187;DHT22;38161;53.020;6.598;2022-10-28T09:37:48;16.30;99.90
52187;DHT22;38161;53.020;6.598;2022-10-28T09:40:21;16.40;99.90
52187;DHT22;38161;53.020;6.598;2022-10-28T09:45:29;16.50;99.90
52187;DHT22;38161;53.020;6.598;2022-10-28T09:48:02;16.50;99.90
52187;DHT22;38161;53.020;6.598;2022-10-28T09:50:31;16.60;99.90
52187;DHT22;38161;53.020;6.598;2022-10-28T09:53:14;16.60;99.90
52187;DHT22;38161;53.020;6.598;2022-10-28T09:55:43;16.60;99.90
52187;DHT22;38161;53.020;6.598;2022-10-28T09:58:10;16.60;99.90
52187;DHT22;38161;53.020;6.598;2022-10-28T10:00:36;16.60;99.90
52187;DHT22;38161;53.020;6.598;2022-10-28T10:03:03;16.70;99.90
52187;DHT22;38161;53.020;6.598;2022-10-28T10:05:31;16.70;99.90
52187;DHT22;38161;53.020;6.598;2022-10-28T10:08:02;16.80;99.90
52187;DHT22;38161;53.020;6.598;2022-10-28T10:13:15;16.80;99.90
52187;DHT22;38161;53.020;6.598;2022-10-28T10:15:45;16.90;99.90
52187;DHT22;38161;53.020;6.598;2022-10-28T10:18:16;16.80;99.90
52187;DHT22;38161;53.020;6.598;2022-10-28T10:20:52;16.90;99.90
52187;DHT22;38161;53.020;6.598;2022-10-28T10:23:35;16.90;99.90
52187;DHT22;38161;53.020;6.598;2022-10-28T10:26:12;17.00;99.90
52187;DHT22;38161;53.020;6.598;2022-10-28T10:28:43;17.00;99.90
52187;DHT22;38161;53.020;6.598;2022-10-28T10:31:30;17.10;99.90
52187;DHT22;38161;53.020;6.598;2022-10-28T10:33:56;17.30;99.90
52187;DHT22;38161;53.020;6.598;2022-10-28T10:36:24;17.40;99.90
52187;DHT22;38161;53.020;6.598;2022-10-28T10:38:55;17.50;99.90
52187;DHT22;38161;53.020;6.598;2022-10-28T10:41:40;17.60;99.90
52187;DHT22;38161;53.020;6.598;2022-10-28T10:49:26;17.70;99.90
52187;DHT22;38161;53.020;6.598;2022-10-28T10:51:54;17.80;99.90
52187;DHT22;38161;53.020;6.598;2022-10-28T10:54:25;17.90;99.90
52187;DHT22;38161;53.020;6.598;2022-10-28T10:56:52;18.00;99.90
52187;DHT22;38161;53.020;6.598;2022-10-28T10:59:27;18.00;99.90
52187;DHT22;38161;53.020;6.598;2022-10-28T11:01:55;18.10;99.90
52187;DHT22;38161;53.020;6.598;2022-10-28T11:04:24;18.20;99.90
52187;DHT22;38161;53.020;6.598;2022-10-28T11:06:53;18.20;99.90
52187;DHT22;38161;53.020;6.598;2022-10-28T11:09:35;18.30;99.90
52187;DHT22;38161;53.020;6.598;2022-10-28T11:12:31;18.30;99.90
52187;DHT22;38161;53.020;6.598;2022-10-28T11:15:00;18.30;99.90
52187;DHT22;38161;53.020;6.598;2022-10-28T11:17:28;18.40;99.90
52187;DHT22;38161;53.020;6.598;2022-10-28T11:19:56;18.50;99.90
52187;DHT22;38161;53.020;6.598;2022-10-28T11:22:44;18.60;99.90
52187;DHT22;38161;53.020;6.598;2022-10-28T11:39:53;19.20;99.90
52187;DHT22;38161;53.020;6.598;2022-10-28T11:42:33;19.20;99.90
52187;DHT22;38161;53.020;6.598;2022-10-28T11:45:17;19.20;99.90
52187;DHT22;38161;53.020;6.598;2022-10-28T11:48:09;19.20;99.90
52187;DHT22;38161;53.020;6.598;2022-10-28T11:56:27;19.30;99.90
52187;DHT22;38161;53.020;6.598;2022-10-28T12:01:38;19.30;99.90
52187;DHT22;38161;53.020;6.598;2022-10-28T12:15:14;19.40;99.90
52187;DHT22;38161;53.020;6.598;2022-10-28T12:17:57;19.40;99.90
52187;DHT22;38161;53.020;6.598;2022-10-28T12:23:17;19.40;99.90
52187;DHT22;38161;53.020;6.598;2022-10-28T12:25:46;19.30;99.90
52187;DHT22;38161;53.020;6.598;2022-10-28T12:28:20;19.30;99.90
52187;DHT22;38161;53.020;6.598;2022-10-28T12:30:48;19.30;99.90
52187;DHT22;38161;53.020;6.598;2022-10-28T12:33:37;19.30;99.90
52187;DHT22;38161;53.020;6.598;2022-10-28T12:38:41;19.20;99.90
52187;DHT22;38161;53.020;6.598;2022-10-28T12:41:17;19.20;99.90
52187;DHT22;38161;53.020;6.598;2022-10-28T12:46:49;19.20;99.90
52187;DHT22;38161;53.020;6.598;2022-10-28T12:49:46;19.20;99.90
52187;DHT22;38161;53.020;6.598;2022-10-28T12:52:34;19.30;99.90
52187;DHT22;38161;53.020;6.598;2022-10-28T12:57:44;19.20;99.90
52187;DHT22;38161;53.020;6.598;2022-10-28T13:00:52;19.20;99.90
52187;DHT22;38161;53.020;6.598;2022-10-28T13:03:13;19.20;99.90
52187;DHT22;38161;53.020;6.598;2022-10-28T13:27:18;19.30;99.90
52187;DHT22;38161;53.020;6.598;2022-10-28T13:29:49;19.20;99.90
52187;DHT22;38161;53.020;6.598;2022-10-28T13:32:37;19.30;99.90
52187;DHT22;38161;53.020;6.598;2022-10-28T13:35:24;19.30;99.90
52187;DHT22;38161;53.020;6.598;2022-10-28T13:37:52;19.40;99.90
52187;DHT22;38161;53.020;6.598;2022-10-28T13:42:58;19.50;99.90
52187;DHT22;38161;53.020;6.598;2022-10-28T13:56:39;19.50;99.90
52187;DHT22;38161;53.020;6.598;2022-10-28T14:01:56;19.50;99.90
52187;DHT22;38161;53.020;6.598;2022-10-28T14:04:30;19.40;99.90
52187;DHT22;38161;53.020;6.598;2022-10-28T14:07:18;19.40;99.90
52187;DHT22;38161;53.020;6.598;2022-10-28T14:09:48;19.40;99.90
52187;DHT22;38161;53.020;6.598;2022-10-28T14:12:26;19.40;99.90
52187;DHT22;38161;53.020;6.598;2022-10-28T14:14:59;19.40;99.90
52187;DHT22;38161;53.020;6.598;2022-10-28T14:17:39;19.40;99.90
52187;DHT22;38161;53.020;6.598;2022-10-28T14:20:22;19.30;99.90
52187;DHT22;38161;53.020;6.598;2022-10-28T14:22:48;19.30;99.90
52187;DHT22;38161;53.020;6.598;2022-10-28T14:44:57;19.00;99.90
52187;DHT22;38161;53.020;6.598;2022-10-28T14:50:20;19.00;99.90
52187;DHT22;38161;53.020;6.598;2022-10-28T14:52:47;19.00;99.90
52187;DHT22;38161;53.020;6.598;2022-10-28T14:55:29;19.00;99.90
52187;DHT22;38161;53.020;6.598;2022-10-28T14:58:21;19.00;99.90
52187;DHT22;38161;53.020;6.598;2022-10-28T15:03:34;18.90;99.90
52187;DHT22;38161;53.020;6.598;2022-10-28T15:06:01;18.90;99.90
52187;DHT22;38161;53.020;6.598;2022-10-28T15:08:43;18.90;99.90
52187;DHT22;38161;53.020;6.598;2022-10-28T15:11:09;18.80;99.90
52187;DHT22;38161;53.020;6.598;2022-10-28T15:13:34;18.80;99.90
52187;DHT22;38161;53.020;6.598;2022-10-28T15:16:00;18.80;99.90
52187;DHT22;38161;53.020;6.598;2022-10-28T15:18:26;18.80;99.90
52187;DHT22;38161;53.020;6.598;2022-10-28T15:21:09;18.80;99.90
52187;DHT22;38161;53.020;6.598;2022-10-28T15:23:35;18.80;99.90
52187;DHT22;38161;53.020;6.598;2022-10-28T15:26:14;18.70;99.90
52187;DHT22;38161;53.020;6.598;2022-10-28T15:28:41;18.70;99.90
52187;DHT22;38161;53.020;6.598;2022-10-28T15:31:07;18.70;99.90
52187;DHT22;38161;53.020;6.598;2022-10-28T15:33:38;18.60;99.90
52187;DHT22;38161;53.020;6.598;2022-10-28T15:36:12;18.60;99.90
52187;DHT22;38161;53.020;6.598;2022-10-28T15:38:50;18.60;99.90
52187;DHT22;38161;53.020;6.598;2022-10-28T15:44:02;18.50;99.90
52187;DHT22;38161;53.020;6.598;2022-10-28T15:46:29;18.50;99.90
52187;DHT22;38161;53.020;6.598;2022-10-28T15:48:57;18.40;99.90
52187;DHT22;38161;53.020;6.598;2022-10-28T15:51:24;18.40;99.90
52187;DHT22;38161;53.020;6.598;2022-10-28T15:53:51;18.40;99.90
52187;DHT22;38161;53.020;6.598;2022-10-28T15:56:19;18.40;99.90
52187;DHT22;38161;53.020;6.598;2022-10-28T15:58:48;18.30;99.90
52187;DHT22;38161;53.020;6.598;2022-10-28T16:01:36;18.30;99.90
52187;DHT22;38161;53.020;6.598;2022-10-28T16:04:05;18.30;99.90
52187;DHT22;38161;53.020;6.598;2022-10-28T16:06:34;18.20;99.90
52187;DHT22;38161;53.020;6.598;2022-10-28T16:11:29;18.20;99.90
52187;DHT22;38161;53.020;6.598;2022-10-28T16:13:55;18.10;99.90
52187;DHT22;38161;53.020;6.598;2022-10-28T16:16:26;18.10;99.90
52187;DHT22;38161;53.020;6.598;2022-10-28T16:19:21;18.10;99.90
52187;DHT22;38161;53.020;6.598;2022-10-28T16:21:49;18.00;99.90
52187;DHT22;38161;53.020;6.598;2022-10-28T16:24:15;18.00;99.90
52187;DHT22;38161;53.020;6.598;2022-10-28T16:26:41;18.00;99.90
52187;DHT22;38161;53.020;6.598;2022-10-28T16:29:06;18.00;99.90
52187;DHT22;38161;53.020;6.598;2022-10-28T16:31:33;17.90;99.90
52187;DHT22;38161;53.020;6.598;2022-10-28T16:33:59;17.90;99.90
52187;DHT22;38161;53.020;6.598;2022-10-28T16:36:25;17.90;99.90
52187;DHT22;38161;53.020;6.598;2022-10-28T16:38:53;17.90;99.90
52187;DHT22;38161;53.020;6.598;2022-10-28T16:41:18;17.80;99.90
52187;DHT22;38161;53.020;6.598;2022-10-28T16:43:45;17.90;99.90
52187;DHT22;38161;53.020;6.598;2022-10-28T16:46:11;17.80;99.90
52187;DHT22;38161;53.020;6.598;2022-10-28T16:48:37;17.80;99.90
52187;DHT22;38161;53.020;6.598;2022-10-28T16:51:08;17.80;99.90
52187;DHT22;38161;53.020;6.598;2022-10-28T16:53:34;17.80;99.90
52187;DHT22;38161;53.020;6.598;2022-10-28T16:56:01;17.80;99.90
52187;DHT22;38161;53.020;6.598;2022-10-28T16:58:29;17.70;99.90
52187;DHT22;38161;53.020;6.598;2022-10-28T17:00:56;17.70;99.90
52187;DHT22;38161;53.020;6.598;2022-10-28T17:03:23;17.70;99.90
52187;DHT22;38161;53.020;6.598;2022-10-28T17:05:49;17.70;99.90
52187;DHT22;38161;53.020;6.598;2022-10-28T17:08:15;17.70;99.90
52187;DHT22;38161;53.020;6.598;2022-10-28T17:10:41;17.60;99.90
52187;DHT22;38161;53.020;6.598;2022-10-28T17:13:13;17.70;99.90
52187;DHT22;38161;53.020;6.598;2022-10-28T17:15:41;17.60;99.90
52187;DHT22;38161;53.020;6.598;2022-10-28T17:18:11;17.60;99.90
52187;DHT22;38161;53.020;6.598;2022-10-28T17:20:38;17.60;99.90
52187;DHT22;38161;53.020;6.598;2022-10-28T17:23:04;17.60;99.90
52187;DHT22;38161;53.020;6.598;2022-10-28T17:25:30;17.60;99.90
52187;DHT22;38161;53.020;6.598;2022-10-28T17:27:56;17.60;99.90
52187;DHT22;38161;53.020;6.598;2022-10-28T17:30:21;17.60;99.90
52187;DHT22;38161;53.020;6.598;2022-10-28T17:32:52;17.60;99.90
52187;DHT22;38161;53.020;6.598;2022-10-28T17:35:19;17.50;99.90
52187;DHT22;38161;53.020;6.598;2022-10-28T17:37:45;17.50;99.90
52187;DHT22;38161;53.020;6.598;2022-10-28T17:40:12;17.60;99.90
52187;DHT22;38161;53.020;6.598;2022-10-28T17:42:37;17.50;99.90
52187;DHT22;38161;53.020;6.598;2022-10-28T17:45:04;17.60;99.90
52187;DHT22;38161;53.020;6.598;2022-10-28T17:47:34;17.50;99.90
52187;DHT22;38161;53.020;6.598;2022-10-28T17:50:00;17.50;99.90
52187;DHT22;38161;53.020;6.598;2022-10-28T17:52:29;17.50;99.90
52187;DHT22;38161;53.020;6.598;2022-10-28T17:54:54;17.50;99.90
52187;DHT22;38161;53.020;6.598;2022-10-28T17:57:21;17.50;99.90
52187;DHT22;38161;53.020;6.598;2022-10-28T17:59:46;17.50;99.90
52187;DHT22;38161;53.020;6.598;2022-10-28T18:02:12;17.50;99.90
52187;DHT22;38161;53.020;6.598;2022-10-28T18:04:40;17.50;99.90
52187;DHT22;38161;53.020;6.598;2022-10-28T18:07:06;17.50;99.90
52187;DHT22;38161;53.020;6.598;2022-10-28T18:09:32;17.50;99.90
52187;DHT22;38161;53.020;6.598;2022-10-28T18:11:59;17.50;99.90
52187;DHT22;38161;53.020;6.598;2022-10-28T18:14:27;17.40;99.90
52187;DHT22;38161;53.020;6.598;2022-10-28T18:16:53;17.50;99.90
52187;DHT22;38161;53.020;6.598;2022-10-28T18:19:18;17.40;99.90
52187;DHT22;38161;53.020;6.598;2022-10-28T18:21:44;17.50;99.90
52187;DHT22;38161;53.020;6.598;2022-10-28T18:24:10;17.40;99.90
52187;DHT22;38161;53.020;6.598;2022-10-28T18:26:37;17.40;99.90
52187;DHT22;38161;53.020;6.598;2022-10-28T18:29:07;17.40;99.90
52187;DHT22;38161;53.020;6.598;2022-10-28T18:31:38;17.40;99.90
52187;DHT22;38161;53.020;6.598;2022-10-28T18:34:06;17.30;99.90
52187;DHT22;38161;53.020;6.598;2022-10-28T18:36:33;17.30;99.90
52187;DHT22;38161;53.020;6.598;2022-10-28T18:39:04;17.30;99.90
52187;DHT22;38161;53.020;6.598;2022-10-28T18:41:30;17.30;99.90
52187;DHT22;38161;53.020;6.598;2022-10-28T18:43:58;17.20;99.90
52187;DHT22;38161;53.020;6.598;2022-10-28T18:46:25;17.20;99.90
52187;DHT22;38161;53.020;6.598;2022-10-28T18:48:51;17.20;99.90
52187;DHT22;38161;53.020;6.598;2022-10-28T18:51:17;17.20;99.90